createdAt,value
2018-09-06T00:05:02.616Z,17.13
2018-09-06T00:10:06.375Z,17.10
2018-09-06T00:15:10.027Z,17.03
2018-09-06T00:20:13.636Z,16.85
2018-09-06T00:25:17.195Z,16.86
2018-09-06T00:30:29.175Z,16.98
2018-09-06T00:35:32.674Z,16.93
2018-09-06T00:40:36.718Z,16.97
2018-09-06T00:45:40.211Z,16.97
2018-09-06T00:50:43.781Z,16.80
2018-09-06T00:55:50.531Z,16.94
2018-09-06T01:00:54.295Z,17.01
2018-09-06T01:05:57.827Z,17.05
2018-09-06T01:11:01.484Z,17.09
2018-09-06T01:16:05.262Z,17.13
2018-09-06T01:21:08.798Z,17.05
2018-09-06T01:26:12.393Z,16.82
2018-09-06T01:31:15.962Z,16.84
2018-09-06T01:36:24.727Z,16.88
2018-09-06T01:41:28.417Z,16.71
2018-09-06T01:46:31.964Z,16.35
2018-09-06T01:51:35.962Z,16.42
2018-09-06T01:56:39.452Z,16.49
2018-09-06T02:01:44.026Z,16.49
2018-09-06T02:06:47.586Z,16.47
2018-09-06T02:11:51.721Z,16.30
2018-09-06T02:16:55.221Z,16.37
2018-09-06T02:21:58.748Z,16.32
2018-09-06T02:27:02.289Z,16.33
2018-09-06T02:32:05.920Z,16.36
2018-09-06T02:37:09.398Z,16.46
2018-09-06T02:42:13.354Z,16.48
2018-09-06T02:47:16.916Z,16.52
2018-09-06T02:52:20.561Z,16.57
2018-09-06T02:57:24.081Z,16.54
2018-09-06T03:02:27.712Z,16.50
2018-09-06T03:07:31.313Z,16.42
2018-09-06T03:12:34.983Z,16.45
2018-09-06T03:17:38.685Z,16.45
2018-09-06T03:22:42.221Z,16.34
2018-09-06T03:27:45.694Z,16.48
2018-09-06T03:32:49.320Z,16.37
2018-09-06T03:37:52.838Z,16.12
2018-09-06T03:42:56.527Z,16.03
2018-09-06T03:48:00.094Z,15.93
2018-09-06T03:53:03.629Z,15.90
2018-09-06T03:58:07.217Z,15.82
2018-09-06T04:03:10.808Z,15.63
2018-09-06T04:08:14.435Z,15.36
2018-09-06T04:13:18.062Z,15.16
2018-09-06T04:18:22.026Z,15.20
2018-09-06T04:23:25.846Z,15.09
2018-09-06T04:28:30.179Z,15.15
2018-09-06T04:33:34.938Z,15.24
2018-09-06T04:38:38.436Z,15.21
2018-09-06T04:43:42.050Z,15.22
2018-09-06T04:48:45.650Z,15.22
2018-09-06T04:53:49.696Z,15.23
2018-09-06T04:58:53.543Z,15.26
2018-09-06T05:03:57.116Z,14.93
2018-09-06T05:09:00.637Z,14.77
2018-09-06T05:14:04.764Z,15.08
2018-09-06T05:19:08.237Z,15.25
2018-09-06T05:24:12.105Z,15.48
2018-09-06T05:29:15.593Z,15.43
2018-09-06T05:34:19.091Z,15.49
2018-09-06T05:39:22.564Z,15.25
2018-09-06T05:44:27.000Z,15.38
2018-09-06T05:49:30.477Z,15.76
2018-09-06T05:54:34.011Z,16.30
2018-09-06T05:59:37.625Z,16.55
2018-09-06T06:04:41.119Z,16.91
2018-09-06T06:09:44.717Z,17.02
2018-09-06T06:14:48.261Z,17.22
2018-09-06T06:19:51.766Z,17.37
2018-09-06T06:24:55.258Z,17.38
2018-09-06T06:29:58.752Z,17.55
2018-09-06T06:35:02.340Z,17.61
2018-09-06T06:40:06.028Z,17.58
2018-09-06T06:45:09.819Z,17.47
2018-09-06T06:50:13.391Z,17.59
2018-09-06T06:55:17.042Z,17.67
2018-09-06T07:00:28.078Z,17.97
2018-09-06T07:05:31.576Z,18.26
2018-09-06T07:10:35.118Z,18.26
2018-09-06T07:15:38.710Z,18.22
2018-09-06T07:20:42.173Z,18.33
2018-09-06T07:25:46.597Z,18.43
2018-09-06T07:30:50.483Z,18.73
2018-09-06T07:35:54.142Z,18.74
2018-09-06T07:40:57.629Z,18.86
2018-09-06T07:46:01.385Z,19.11
2018-09-06T07:51:04.993Z,19.33
2018-09-06T07:56:08.921Z,19.23
2018-09-06T08:01:12.393Z,19.29
2018-09-06T08:06:15.977Z,19.65
2018-09-06T08:11:19.721Z,19.83
2018-09-06T08:16:23.458Z,20.20
2018-09-06T08:21:26.922Z,20.70
2018-09-06T08:26:31.922Z,20.97
2018-09-06T08:31:35.861Z,21.12
2018-09-06T08:36:40.076Z,21.55
2018-09-06T08:41:43.674Z,21.99
2018-09-06T08:46:47.840Z,22.06
2018-09-06T08:51:51.400Z,22.30
2018-09-06T08:56:55.145Z,22.25
2018-09-06T09:01:59.119Z,22.52
2018-09-06T09:07:02.718Z,22.66
2018-09-06T09:12:06.470Z,22.75
2018-09-06T09:17:10.054Z,23.07
2018-09-06T09:22:14.112Z,23.01
2018-09-06T09:27:17.633Z,22.86
2018-09-06T09:32:21.140Z,22.94
2018-09-06T09:37:24.727Z,22.85
2018-09-06T09:42:28.327Z,22.69
2018-09-06T09:52:37.758Z,23.07
2018-09-06T09:57:41.288Z,23.35
2018-09-06T10:02:50.221Z,23.28
2018-09-06T10:07:57.919Z,23.18
2018-09-06T10:13:01.644Z,23.63
2018-09-06T10:18:05.234Z,23.83
2018-09-06T10:23:08.838Z,23.80
2018-09-06T10:28:12.506Z,23.71
2018-09-06T10:33:16.019Z,23.84
2018-09-06T10:38:19.637Z,23.87
2018-09-06T10:43:23.443Z,23.75
2018-09-06T10:48:26.962Z,23.74
2018-09-06T10:53:30.541Z,23.82
2018-09-06T10:58:34.114Z,23.94
2018-09-06T11:03:37.759Z,23.81
2018-09-06T11:08:41.277Z,23.89
2018-09-06T11:13:44.860Z,24.05
2018-09-06T11:18:48.605Z,24.11
2018-09-06T11:23:52.711Z,24.25
2018-09-06T11:28:56.253Z,24.22
2018-09-06T11:33:59.829Z,24.73
2018-09-06T11:39:04.787Z,24.96
2018-09-06T11:44:08.651Z,25.12
2018-09-06T11:49:12.289Z,24.92
2018-09-06T11:54:16.113Z,24.50
2018-09-06T11:59:19.600Z,24.71
2018-09-06T12:04:25.358Z,24.38
2018-09-06T12:09:28.836Z,23.56
2018-09-06T12:14:33.285Z,22.83
2018-09-06T12:19:36.865Z,22.37
2018-09-06T12:24:40.730Z,22.21
2018-09-06T12:29:44.325Z,21.91
2018-09-06T12:34:48.794Z,21.39
2018-09-06T12:39:52.373Z,21.05
2018-09-06T12:44:56.554Z,20.85
2018-09-06T12:50:00.045Z,20.90
2018-09-06T12:55:03.617Z,20.69
2018-09-06T13:00:10.047Z,20.46
2018-09-06T13:05:13.694Z,20.48
2018-09-06T13:10:17.248Z,20.39
2018-09-06T13:15:20.855Z,20.33
2018-09-06T13:20:24.343Z,20.27
2018-09-06T13:25:28.246Z,20.36
2018-09-06T13:30:35.602Z,20.45
2018-09-06T13:35:39.262Z,20.50
2018-09-06T13:40:43.756Z,20.77
2018-09-06T13:45:47.361Z,20.65
2018-09-06T13:50:51.663Z,21.22
2018-09-06T13:55:55.353Z,21.67
2018-09-06T14:00:59.443Z,21.96
2018-09-06T14:06:02.990Z,21.83
2018-09-06T14:11:06.555Z,21.62
2018-09-06T14:16:10.120Z,21.28
2018-09-06T14:21:13.878Z,21.32
2018-09-06T14:26:17.605Z,21.14
2018-09-06T14:31:21.569Z,21.09
2018-09-06T14:36:25.564Z,20.93
2018-09-06T14:41:29.121Z,20.72
2018-09-06T14:46:32.704Z,20.77
2018-09-06T14:51:36.267Z,21.17
2018-09-06T14:56:39.796Z,21.84
2018-09-06T15:01:45.532Z,22.00
2018-09-06T15:06:49.047Z,22.36
2018-09-06T15:11:52.545Z,22.17
2018-09-06T15:16:56.527Z,21.85
2018-09-06T15:22:00.069Z,21.82
2018-09-06T15:27:03.709Z,21.80
2018-09-06T15:32:08.276Z,21.96
2018-09-06T15:37:11.829Z,22.17
2018-09-06T15:42:15.351Z,22.18
2018-09-06T15:47:18.924Z,22.40
2018-09-06T15:52:23.503Z,22.12
2018-09-06T15:57:27.133Z,21.98
2018-09-06T16:02:38.403Z,21.69
2018-09-06T16:07:42.555Z,21.51
2018-09-06T16:12:46.101Z,21.79
2018-09-06T16:17:49.718Z,22.02
2018-09-06T16:22:53.341Z,22.18
2018-09-06T16:27:57.144Z,22.12
2018-09-06T16:33:00.655Z,21.97
2018-09-06T16:38:04.394Z,21.75
2018-09-06T16:43:07.884Z,21.74
2018-09-06T16:48:12.310Z,21.62
2018-09-06T16:53:16.191Z,21.57
2018-09-06T16:58:20.081Z,21.46
2018-09-06T17:03:23.606Z,21.50
2018-09-06T17:08:27.224Z,21.46
2018-09-06T17:13:31.815Z,21.35
2018-09-06T17:18:35.652Z,21.23
2018-09-06T17:23:39.238Z,20.93
2018-09-06T17:28:43.201Z,20.76
2018-09-06T17:33:46.783Z,20.63
2018-09-06T17:38:50.897Z,20.72
2018-09-06T17:43:54.558Z,20.58
2018-09-06T17:48:59.104Z,20.53
2018-09-06T17:54:02.935Z,20.33
2018-09-06T17:59:06.556Z,20.38
2018-09-06T18:04:10.930Z,20.20
2018-09-06T18:09:14.995Z,20.19
2018-09-06T18:14:18.568Z,20.12
2018-09-06T18:19:23.716Z,19.98
2018-09-06T18:24:27.306Z,19.92
2018-09-06T18:29:31.583Z,19.85
2018-09-06T18:34:35.079Z,19.83
2018-09-06T18:39:43.206Z,20.06
2018-09-06T18:44:46.838Z,20.02
2018-09-06T18:49:50.496Z,19.89
2018-09-06T18:54:54.049Z,19.86
2018-09-06T18:59:57.827Z,19.64
2018-09-06T19:05:01.685Z,19.51
2018-09-06T19:10:07.309Z,19.48
2018-09-06T19:15:10.830Z,19.47
2018-09-06T19:20:15.250Z,19.43
2018-09-06T19:25:18.784Z,19.37
2018-09-06T19:30:42.277Z,19.16
2018-09-06T19:35:46.597Z,19.15
2018-09-06T19:40:50.307Z,19.12
2018-09-06T19:45:54.262Z,19.19
2018-09-06T19:50:57.821Z,19.23
2018-09-06T19:56:01.382Z,19.13
2018-09-06T20:01:04.930Z,19.01
2018-09-06T20:06:08.606Z,19.07
2018-09-06T20:11:12.273Z,19.08
2018-09-06T20:16:15.807Z,19.15
2018-09-06T20:21:19.373Z,19.29
2018-09-06T20:26:22.855Z,19.35
2018-09-06T20:31:26.638Z,19.31
2018-09-06T20:36:30.238Z,19.26
2018-09-06T20:41:33.756Z,19.20
2018-09-06T20:46:37.880Z,19.35
2018-09-06T20:51:41.478Z,19.34
2018-09-06T20:56:45.621Z,19.39
2018-09-06T21:01:49.164Z,19.35
2018-09-06T21:06:52.646Z,19.26
2018-09-06T21:11:56.372Z,19.19
2018-09-06T21:17:00.453Z,19.16
2018-09-06T21:22:04.118Z,19.09
2018-09-06T21:27:07.849Z,18.93
2018-09-06T21:32:11.593Z,18.78
2018-09-06T21:37:15.082Z,18.75
2018-09-06T21:42:19.050Z,18.60
2018-09-06T21:47:22.579Z,18.54
2018-09-06T21:52:26.249Z,18.46
2018-09-06T21:57:30.578Z,18.34
2018-09-06T22:02:39.513Z,18.20
2018-09-06T22:07:43.094Z,17.95
2018-09-06T22:12:47.328Z,17.86
2018-09-06T22:17:50.889Z,17.78
2018-09-06T22:22:54.450Z,17.79
2018-09-06T22:27:58.039Z,17.71
2018-09-06T22:33:01.564Z,17.72
2018-09-06T22:38:05.352Z,17.73
2018-09-06T22:43:09.766Z,17.80
2018-09-06T22:48:13.264Z,17.80
2018-09-06T22:53:17.296Z,17.78
2018-09-06T22:58:20.881Z,17.74
2018-09-06T23:03:29.797Z,17.77
2018-09-06T23:08:34.127Z,17.77
2018-09-06T23:13:37.962Z,17.76
2018-09-06T23:18:42.304Z,17.82
2018-09-06T23:23:50.480Z,17.76
2018-09-06T23:28:54.535Z,17.72
2018-09-06T23:33:58.162Z,17.64
2018-09-06T23:39:02.008Z,17.60
2018-09-06T23:44:05.584Z,17.46
2018-09-06T23:49:09.643Z,17.44
2018-09-06T23:54:13.414Z,17.37
2018-09-06T23:59:16.984Z,17.37
